宮崎 の空港の天気 - METARとTAF

宮崎空港 ( RJFM / KMI ) - 宮崎県宮崎市
飛行場実況気象(Metar)
観測時間04/24 21:00 JST (04/24 12:00 UTC)
風向・風速南南西 4m/s
視程10km以上
天気現象
少しの雲 雲底高度 300m
全天の4割程度の雲 雲底高度 910m
全天の8割程度の雲 雲底高度 1370m
気温23℃
湿度89%
気圧1002hPa
METARRJFM 241200Z 21007KT 9999 FEW010 SCT030 BKN045 23/21 Q1002
過去の天気等 Google飛行場航空写真 Wunderground天気予報

過去48時間のMETAR

飛行場予報(TAF)
発表時間: 4/24 20:06 JST (4/24 11:06 UTC)
予報対象時間: 24日21時 JST ~ 26日3時 JST
風向・風速南南西 4m/s
視程8,000m
天気現象弱いしゅう雨
少しの雲 雲底高度 150m
全天の4割程度の雲 雲底高度 300m
全天の8割程度の雲 雲底高度 760m
24日21時 JST ~ 24日23時 JST に徐々に
風向・風速西 5m/s
25日9時 JST ~ 25日12時 JST に徐々に
風向・風速東 4m/s
25日18時 JST ~ 25日21時 JST に徐々に
風向・風速北東 6m/s
TAF RJFM 241106Z 2412/2518 20007KT 8000 -SHRA FEW005 SCT010 BKN025
BECMG 2412/2414 26010KT
BECMG 2500/2503 10008KT
BECMG 2509/2512 04011KT
日本の空港のMETAR・TAFへのリンク

RJTT 東京国際空港
RJAA 新東京国際空港
RJBB 関西国際空港
RJOO 大阪空港
RJGG 中部国際空港
RJCC 新千歳空港
RJFF 福岡空港
ROAH 那覇空港


RJEC 旭川空港
RJCH 函館空港
RJCK 釧路空港
RJCM 女満別空港
RJCB 帯広空港
RJSA 青森空港
RJSS 仙台空港
RJSK 秋田空港
RJSF 福島空港
RJAH 茨城空港
RJSN 新潟空港
RJNT 富山空港
RJNK 小松飛行場
RJNS 静岡空港
RJOH 美保飛行場
RJOC 出雲空港
RJOB 岡山空港
RJOA 広島空港
RJOI 岩国飛行場
RJOT 高松空港
RJOM 松山空港
RJOK 高知空港
RJFR 北九州空港
RJFT 熊本空港
RJFU 長崎空港
RJFS 佐賀空港
RJFO 大分空港
RJFM 宮崎空港
RJFK 鹿児島空港
ROIG 石垣島空港
RJTY 横田飛行場
ROTM 普天間飛行場
RODN 嘉手納飛行場